Flight Track Log - Related Links

Times and Time Zones

All times are in EST time to prevent confusion due to time zone crossing. See the DAL3676 flight status page for this flight to view local times or setup timezone preferences in your user account.

Time Position Orientation Groundspeed Altitude Reporting Facility
EST Latitude Longitude Course Direction KTS MPH feet Rate Location/Type
Tue 03:11:40 PM 36.1333 -86.6500 39° Northeast 135 155 1,600  Level Nashville TRACON
Tue 03:12:28 PM 36.1667 -86.6333 22° Northeast 180 207 3,000 1,714 Climbing Nashville TRACON
Tue 03:13:04 PM 36.1833 -86.5833 68° East 249 287 4,000 2,125 Climbing Nashville TRACON
Tue 03:14:04 PM 36.1833 -86.5000 90° East 293 337 6,400 2,463 Climbing Nashville TRACON
Tue 03:15:18 PM 36.1856 -86.3750 89° East 294 338 9,500 2,471 Climbing Memphis Center
Tue 03:16:20 PM 36.1906 -86.2625 87° East 316 364 12,000 2,274 Climbing Memphis Center
Tue 03:17:00 PM 36.3019 -85.7981 39° Northeast  Level FlightAware Approximate
Tue 03:17:22 PM 36.1969 -86.1317 86° East 369 425 14,200  Level Memphis Center
Tue 03:18:24 PM 36.2342 -85.9972 71° East 417 480 17,000 2,250 Climbing Memphis Center
Tue 03:19:22 PM 36.2925 -85.8672 61° Northeast 435 501 18,700 1,650 Climbing Indianapolis Center
Tue 03:20:24 PM 36.3514 -85.7364 61° Northeast 441 507 20,300 1,742 Climbing Indianapolis Center
Tue 03:21:26 PM 36.4194 -85.5933 59° Northeast 467 537 22,300 1,887 Climbing Indianapolis Center
Tue 03:22:28 PM 36.4894 -85.4483 59° Northeast 482 555 24,200 1,790 Climbing Indianapolis Center
Tue 03:23:30 PM 36.5750 -85.2658 60° Northeast 502 578 26,000 1,645 Climbing Indianapolis Center
Tue 03:24:32 PM 36.6394 -85.1053 63° Northeast 513 590 27,600 1,645 Climbing Indianapolis Center
Tue 03:25:34 PM 36.6897 -84.9356 70° East 519 597 29,400 1,790 Climbing Indianapolis Center
Tue 03:26:36 PM 36.7406 -84.7672 69° East 515 593 31,300 1,742 Climbing Indianapolis Center
Tue 03:27:38 PM 36.7914 -84.6014 69° East 510 587 33,000 1,452 Climbing Indianapolis Center
Tue 03:28:40 PM 36.8417 -84.4386 69° East 512 589 34,300 976 Climbing Indianapolis Center
Tue 03:29:41 PM 36.9008 -84.2400 70° East 522 601 35,000 341 Climbing Indianapolis Center
Tue 03:30:43 PM 36.9531 -84.0642 70° East 535 616 35,000  Level Indianapolis Center
Tue 03:31:45 PM 37.0069 -83.8856 69° East 546 628 35,000  Level Indianapolis Center
Tue 03:32:47 PM 37.0583 -83.7081 70° East 542 624 35,000  Level Indianapolis Center
Tue 03:33:49 PM 37.1117 -83.5286 70° East 545 627 35,000  Level Indianapolis Center
Tue 03:34:51 PM 37.1639 -83.3472 70° East 548 631 35,000  Level Indianapolis Center
Tue 03:35:53 PM 37.2169 -83.1647 70° East 549 632 35,000  Level Indianapolis Center
Tue 03:36:54 PM 37.2694 -82.9831 70° East 549 632 35,000  Level Indianapolis Center
Tue 03:37:56 PM 37.3303 -82.7703 70° East 549 632 35,000  Level Indianapolis Center
Tue 03:38:58 PM 37.3819 -82.5883 70° East 550 633 35,000  Level Indianapolis Center
Tue 03:40:00 PM 37.4331 -82.4053 71° East 550 633 35,000  Level Indianapolis Center
Tue 03:41:02 PM 37.4842 -82.2219 71° East 552 635 35,000  Level Indianapolis Center
Tue 03:42:04 PM 37.5356 -82.0389 70° East 552 635 35,000  Level Indianapolis Center
Tue 03:43:06 PM 37.5856 -81.8542 71° East 554 638 35,000  Level Indianapolis Center
Tue 03:44:08 PM 37.6356 -81.6711 71° East 552 635 35,000  Level Indianapolis Center
Tue 03:45:09 PM 37.6925 -81.4597 71° East 552 635 35,000  Level Indianapolis Center
Tue 03:46:11 PM 37.7406 -81.2775 72° East 558 642 35,000  Level Indianapolis Center
Tue 03:47:13 PM 37.7850 -81.0950 73° East 556 640 35,000  Level Indianapolis Center
Tue 03:48:15 PM 37.7950 -80.9078 86° East 549 632 35,000  Level Indianapolis Center
Tue 03:49:17 PM 37.8094 -80.6839 85° East 547 629 35,000  Level Indianapolis Center
Tue 03:50:17 PM 37.8228 -80.4950 85° East 547 629 35,000  Level Washington Center
Tue 03:51:18 PM 37.8344 -80.3036 86° East 547 629 35,000  Level Washington Center
Tue 03:52:18 PM 37.8456 -80.1308 85° East 547 629 35,000  Level Washington Center
Tue 03:53:19 PM 37.8586 -79.9422 85° East 547 629 35,000  Level Washington Center
Tue 03:54:19 PM 37.8697 -79.7483 86° East 547 629 35,000  Level Washington Center
Tue 03:55:20 PM 37.8825 -79.5567 85° East 547 629 35,000  Level Washington Center
Tue 03:56:17 PM 37.8928 -79.3678 86° East 547 629 35,000  Level Washington Center
Tue 03:57:18 PM 37.9028 -79.1736 86° East 552 635 35,000  Level Washington Center
Tue 03:58:17 PM 37.9208 -78.9850 83° East 546 628 35,000  Level Washington Center
Tue 03:59:17 PM 37.9456 -78.7753 81° East 546 628 35,000  Level Washington Center
Tue 04:00:18 PM 37.9669 -78.5839 82° East 546 628 35,000  Level Washington Center
Tue 04:01:19 PM 37.9903 -78.3953 81° East 546 628 35,000  Level Washington Center
Tue 04:02:19 PM 38.0133 -78.2064 81° East 546 628 35,000  Level Washington Center
Tue 04:03:17 PM 38.0214 -78.0194 87° East 539 620 35,000  Level Washington Center
Tue 04:04:18 PM 38.0336 -77.8272 85° East 539 620 35,000  Level Washington Center
Tue 04:05:18 PM 38.0453 -77.6353 86° East 539 620 35,000  Level Washington Center
Tue 04:06:19 PM 38.0567 -77.4431 86° East 539 620 35,000  Level Washington Center
Tue 04:07:19 PM 38.0742 -77.2561 83° East 539 620 35,000  Level Washington Center
Tue 04:08:17 PM 38.1344 -77.1017 64° Northeast 546 628 35,000  Level Washington Center
Tue 04:09:17 PM 38.2239 -76.9556 52° Northeast 526 605 35,000  Level Washington Center
Tue 04:10:18 PM 38.3256 -76.7958 51° Northeast 526 605 35,000  Level Washington Center
Tue 04:11:19 PM 38.4147 -76.6489 52° Northeast 521 600 35,000  Level Washington Center
Tue 04:12:17 PM 38.5056 -76.5044 51° Northeast 521 600 35,000 -51 Level Washington Center
Tue 04:13:17 PM 38.5983 -76.3542 52° Northeast 526 605 34,900 -1,091 Descending Washington Center
Tue 04:14:18 PM 38.6867 -76.2086 52° Northeast 527 606 32,800 -2,182 Descending Washington Center
Tue 04:15:18 PM 38.7811 -76.0631 50° Northeast 527 606 30,500 -2,200 Descending Washington Center
Tue 04:16:18 PM 38.8711 -75.9142 52° Northeast 532 612 28,400 -1,983 Descending Washington Center
Tue 04:17:19 PM 38.9631 -75.7758 49° Northeast 526 605 26,500 -1,765 Descending Washington Center
Tue 04:18:17 PM 39.0717 -75.6744 36° Northeast 490 564 24,900 -1,271 Descending Washington Center
Tue 04:19:17 PM 39.1758 -75.5703 38° Northeast 480 552 24,000 -744 Descending Washington Center
Tue 04:20:18 PM 39.2822 -75.4708 36° Northeast 474 545 23,400 -1,033 Descending Washington Center
Tue 04:21:19 PM 39.3883 -75.3794 34° Northeast 462 532 21,900 -1,563 Descending Washington Center
Tue 04:22:17 PM 39.4903 -75.2903 34° Northeast 450 518 20,300 -1,600 Descending Washington Center
Tue 04:23:19 PM 39.5919 -75.1931 36° Northeast 450 518 18,700 -1,317 Descending Washington Center
Tue 04:24:20 PM 39.6833 -75.1117 34° Northeast 440 506 17,600 -1,475 Descending Washington Center
Tue 04:25:17 PM 39.7892 -75.0192 34° Northeast 430 495 15,800 -1,678 Descending Washington Center
Tue 04:26:18 PM 39.8764 -74.9428 34° Northeast 422 486 14,300 -1,636 Descending Washington Center
Tue 04:27:18 PM 39.9633 -74.8417 42° Northeast 417 480 12,500 -1,581 Descending Washington Center
Tue 04:28:46 PM 40.0667 -74.6833 50° Northeast 370 426 10,400 -1,014 Descending New York TRACON
Tue 04:29:46 PM 40.1333 -74.5833 49° Northeast 331 381 10,000 -200 Descending New York TRACON
Tue 04:30:46 PM 40.1833 -74.5167 46° Northeast 272 313 10,000 -50 Level New York TRACON
Tue 04:31:46 PM 40.2500 -74.4500 37° Northeast 269 310 9,900 -450 Descending New York TRACON
Tue 04:32:46 PM 40.3000 -74.3833 45° Northeast 262 302 9,100 -950 Descending New York TRACON
Tue 04:33:46 PM 40.3500 -74.3500 27° Northeast 240 276 8,000 -950 Descending New York TRACON
Tue 04:34:46 PM 40.4000 -74.2833 45° Northeast 233 268 7,200 -600 Descending New York TRACON
Tue 04:35:46 PM 40.4167 -74.2000 75° East 231 266 6,800 -650 Descending New York TRACON
Tue 04:36:46 PM 40.4500 -74.1333 57° Northeast 229 264 5,900 -850 Descending New York TRACON
Tue 04:37:46 PM 40.5000 -74.1000 27° Northeast 213 245 5,100 -800 Descending New York TRACON
Tue 04:38:46 PM 40.5500 -74.0667 27° Northeast 193 222 4,300 -550 Descending New York TRACON
Tue 04:39:46 PM 40.6000 -74.0333 27° Northeast 193 222 4,000 -650 Descending New York TRACON
Tue 04:40:46 PM 40.6333 -73.9833 49° Northeast 174 200 3,000 -800 Descending New York TRACON
Tue 04:41:46 PM 40.6833 -73.9500 27° Northeast 173 199 2,400 -800 Descending New York TRACON
Tue 04:42:46 PM 40.7167 -73.9333 21° North 139 160 1,400 -900 Descending New York TRACON
Tue 04:43:46 PM 40.7500 -73.9000 37° Northeast 135 155 600 -800 Descending New York TRACON

Login

Don't have an account? Register now (free) for customized features, flight alerts, and more!